| time (UTC) | temp C | wind direction | speed KPH | gust KPH | rain 1hr cm | rain 24hr cm | rain mn cm | humidity % | barometer mb |
| 20260507225036 | 15 | 280 | 4.8 | 12.9 | 0.00 | 0.36 | 0.36 | 40 | |
| 20260507224531 | 15 | 257 | 8.0 | 12.9 | 0.00 | 0.36 | 0.36 | 38 | |
| 20260507224028 | 15 | 357 | 8.0 | 11.3 | 0.00 | 0.36 | 0.36 | 37 | |
| 20260507223525 | 15 | 325 | 12.9 | 17.7 | 0.00 | 0.36 | 0.36 | 37 | |
| 20260507223022 | 16 | 278 | 1.6 | 9.7 | 0.00 | 0.36 | 0.36 | 40 | |
| 20260507222519 | 16 | 258 | 4.8 | 4.8 | 0.00 | 0.36 | 0.36 | 39 | |
| 20260507222015 | 16 | 262 | 1.6 | 4.8 | 0.00 | 0.36 | 0.36 | 38 | |
| 20260507221512 | 16 | 273 | 1.6 | 11.3 | 0.00 | 0.36 | 0.36 | 39 | |
| 20260507221009 | 16 | 256 | 6.4 | 11.3 | 0.00 | 0.36 | 0.36 | 37 | |
| 20260507220506 | 16 | 263 | 6.4 | 8.0 | 0.00 | 0.36 | 0.36 | 39 | |
| 20260507220003 | 16 | 265 | 4.8 | 8.0 | 0.00 | 0.36 | 0.36 | 38 | |
| 20260507215459 | 16 | 236 | 4.8 | 11.3 | 0.00 | 0.36 | 0.36 | 38 | |
| 20260507214957 | 16 | 267 | 3.2 | 9.7 | 0.00 | 0.36 | 0.36 | 38 | |
| 20260507214454 | 16 | 231 | 11.3 | 14.5 | 0.00 | 0.36 | 0.36 | 36 | |
| 20260507213949 | 16 | 258 | 4.8 | 9.7 | 0.00 | 0.36 | 0.36 | 39 | |
| 20260507213446 | 16 | 219 | 9.7 | 14.5 | 0.00 | 0.36 | 0.36 | 36 | |
| 20260507212943 | 16 | 295 | 4.8 | 9.7 | 0.00 | 0.36 | 0.36 | 39 | |
| 20260507212438 | 16 | 283 | 3.2 | 9.7 | 0.00 | 0.36 | 0.36 | 37 | |
| 20260507211936 | 17 | 229 | 4.8 | 8.0 | 0.00 | 0.36 | 0.36 | 38 | |
| 20260507211432 | 17 | 269 | 4.8 | 8.0 | 0.00 | 0.36 | 0.36 | 37 | |
| 20260507210929 | 17 | 262 | 4.8 | 9.7 | 0.00 | 0.36 | 0.36 | 41 | |
| 20260507210426 | 17 | 95 | 4.8 | 4.8 | 0.00 | 0.36 | 0.36 | 40 | |
| 20260507205923 | 17 | 265 | 3.2 | 4.8 | 0.00 | 0.36 | 0.36 | 39 | |
| 20260507205420 | 17 | 314 | 3.2 | 17.7 | 0.00 | 0.36 | 0.36 | 39 | |
| 20260507204916 | 17 | 240 | 8.0 | 12.9 | 0.00 | 0.36 | 0.36 | 37 | |
| 20260507204413 | 17 | 219 | 11.3 | 25.7 | 0.00 | 0.36 | 0.36 | 35 | |
| 20260507203910 | 17 | 249 | 4.8 | 11.3 | 0.00 | 0.36 | 0.36 | 39 | |
| 20260507203408 | 17 | 247 | 8.0 | 17.7 | 0.00 | 0.36 | 0.36 | 36 | |
| 20260507202904 | 18 | 288 | 3.2 | 11.3 | 0.00 | 0.36 | 0.36 | 38 | |
| 20260507202401 | 18 | 290 | 1.6 | 9.7 | 0.00 | 0.36 | 0.36 | 40 | |
| 20260507201856 | 18 | 195 | 6.4 | 9.7 | 0.00 | 0.36 | 0.36 | 38 | |
| 20260507201352 | 18 | 256 | 4.8 | 4.8 | 0.00 | 0.36 | 0.36 | 36 | |
| 20260507200848 | 18 | 205 | 3.2 | 8.0 | 0.00 | 0.36 | 0.36 | 41 | |
| 20260507200345 | 18 | 12 | 1.6 | 14.5 | 0.00 | 0.36 | 0.36 | 43 | |
| 20260507195841 | 18 | 270 | 4.8 | 11.3 | 0.00 | 0.36 | 0.36 | 39 | |
| 20260507195338 | 17 | 241 | 11.3 | 16.1 | 0.00 | 0.36 | 0.36 | 37 | |
| 20260507194835 | 18 | 219 | 3.2 | 8.0 | 0.00 | 0.36 | 0.36 | 39 | |
| 20260507194326 | 18 | 279 | 1.6 | 4.8 | 0.00 | 0.36 | 0.36 | 46 | |
| 20260507193822 | 18 | 318 | 6.4 | 11.3 | 0.00 | 0.36 | 0.36 | 38 | |
| 20260507193320 | 18 | 331 | 4.8 | 11.3 | 0.00 | 0.36 | 0.36 | 35 | |
| 20260507192815 | 18 | 218 | 4.8 | 8.0 | 0.00 | 0.36 | 0.36 | 39 | |
| 20260507192312 | 18 | 13 | 0.0 | 1.6 | 0.00 | 0.36 | 0.36 | 41 | |
| 20260507191809 | 19 | 256 | 8.0 | 11.3 | 0.00 | 0.36 | 0.36 | 37 | |
| 20260507191305 | 18 | 250 | 1.6 | 4.8 | 0.00 | 0.36 | 0.36 | 42 | |
| 20260507190802 | 18 | 328 | 0.0 | 8.0 | 0.00 | 0.36 | 0.36 | 38 | |
| 20260507190301 | 18 | 223 | 1.6 | 8.0 | 0.00 | 0.36 | 0.36 | 42 | |
| 20260507185759 | 18 | 237 | 1.6 | 3.2 | 0.00 | 0.36 | 0.36 | 45 | |
| 20260507185255 | 18 | 258 | 4.8 | 12.9 | 0.00 | 0.36 | 0.36 | 38 | |
| 20260507184753 | 17 | 232 | 6.4 | 12.9 | 0.00 | 0.36 | 0.36 | 37 | |
| 20260507184251 | 18 | 231 | 9.7 | 16.1 | 0.00 | 0.36 | 0.36 | 38 | |
| 20260507183747 | 18 | 302 | 1.6 | 3.2 | 0.00 | 0.36 | 0.36 | 44 | |
| 20260507183244 | 18 | 222 | 6.4 | 9.7 | 0.00 | 0.36 | 0.36 | 37 | |
| 20260507182742 | 17 | 244 | 4.8 | 4.8 | 0.00 | 0.36 | 0.36 | 37 | |
| 20260507182236 | 17 | 74 | 3.2 | 9.7 | 0.00 | 0.36 | 0.36 | 42 | |
| 20260507181733 | 17 | 343 | 3.2 | 16.1 | 0.00 | 0.36 | 0.36 | 36 | |
| 20260507181230 | 17 | 263 | 8.0 | 11.3 | 0.00 | 0.36 | 0.36 | 38 | |
| 20260507180726 | 17 | 263 | 3.2 | 4.8 | 0.00 | 0.36 | 0.36 | 41 | |
| 20260507180223 | 17 | 239 | 4.8 | 8.0 | 0.00 | 0.36 | 0.36 | 38 | |
| 20260507175719 | 17 | 38 | 4.8 | 4.8 | 0.00 | 0.36 | 0.36 | 48 | |
| 20260507175216 | 17 | 263 | 8.0 | 12.9 | 0.00 | 0.36 | 0.36 | 40 | |
| 20260507174714 | 17 | 64 | 1.6 | 4.8 | 0.00 | 0.36 | 0.36 | 45 | |
| 20260507174211 | 18 | 133 | 1.6 | 9.7 | 0.00 | 0.36 | 0.36 | 44 | |
| 20260507173709 | 17 | 281 | 1.6 | 4.8 | 0.00 | 0.36 | 0.36 | 43 | |
| 20260507173205 | 17 | 254 | 4.8 | 8.0 | 0.00 | 0.36 | 0.36 | 45 | |
| 20260507172702 | 16 | 223 | 6.4 | 12.9 | 0.00 | 0.36 | 0.36 | 44 | |
| 20260507172159 | 17 | 259 | 4.8 | 11.3 | 0.00 | 0.36 | 0.36 | 48 | |
| 20260507171658 | 17 | 240 | 4.8 | 8.0 | 0.00 | 0.36 | 0.36 | 46 | |
| 20260507171156 | 17 | 126 | 1.6 | 4.8 | 0.00 | 0.36 | 0.36 | 48 | |
| 20260507170653 | 16 | 282 | 1.6 | 1.6 | 0.00 | 0.36 | 0.36 | 50 | |
| 20260507170150 | 16 | 211 | 4.8 | 20.9 | 0.00 | 0.36 | 0.36 | 47 | |
| 20260507165646 | 16 | 236 | 6.4 | 11.3 | 0.00 | 0.36 | 0.36 | 48 | |
| 20260507165142 | 16 | 234 | 1.6 | 9.7 | 0.00 | 0.36 | 0.36 | 47 | |
| 20260507164638 | 16 | 316 | 8.0 | 16.1 | 0.00 | 0.36 | 0.36 | 49 | |
| 20260507164136 | 16 | 205 | 3.2 | 8.0 | 0.00 | 0.36 | 0.36 | 52 | |
| 20260507163633 | 16 | 262 | 4.8 | 11.3 | 0.00 | 0.36 | 0.36 | 49 | |
| 20260507163131 | 16 | 306 | 4.8 | 8.0 | 0.00 | 0.36 | 0.36 | 48 | |
| 20260507162626 | 16 | 272 | 9.7 | 11.3 | 0.00 | 0.36 | 0.36 | 48 | |
| 20260507162123 | 16 | 265 | 3.2 | 4.8 | 0.00 | 0.36 | 0.36 | 51 | |
| 20260507161619 | 16 | 289 | 3.2 | 4.8 | 0.00 | 0.36 | 0.36 | 52 | |
| 20260507161116 | 16 | 185 | 4.8 | 12.9 | 0.00 | 0.36 | 0.36 | 49 | |
| 20260507160612 | 16 | 136 | 3.2 | 8.0 | 0.00 | 0.36 | 0.36 | 56 | |
| 20260507160109 | 16 | 31 | 3.2 | 11.3 | 0.00 | 0.36 | 0.36 | 51 | |
| 20260507155604 | 16 | 293 | 4.8 | 12.9 | 0.00 | 0.36 | 0.36 | 52 | |
| 20260507155101 | 16 | 291 | 4.8 | 8.0 | 0.00 | 0.36 | 0.36 | 60 | |
| 20260507154558 | 15 | 195 | 4.8 | 11.3 | 0.00 | 0.36 | 0.36 | 56 | |
| 20260507154055 | 15 | 243 | 4.8 | 11.3 | 0.00 | 0.36 | 0.36 | 55 | |
| 20260507153552 | 16 | 227 | 4.8 | 8.0 | 0.00 | 0.36 | 0.36 | 59 | |
| 20260507153048 | 15 | 290 | 1.6 | 4.8 | 0.00 | 0.36 | 0.36 | 62 | |
| 20260507152544 | 16 | 200 | 4.8 | 9.7 | 0.00 | 0.36 | 0.36 | 62 | |
| 20260507152040 | 16 | 228 | 1.6 | 9.7 | 0.00 | 0.36 | 0.36 | 61 | |
| 20260507151536 | 15 | 287 | 6.4 | 14.5 | 0.00 | 0.36 | 0.36 | 59 | |
| 20260507151034 | 15 | 264 | 6.4 | 14.5 | 0.00 | 0.36 | 0.36 | 62 | |
| 20260507150531 | 15 | 25 | 4.8 | 4.8 | 0.00 | 0.36 | 0.36 | 62 | |
| 20260507150027 | 15 | 320 | 3.2 | 4.8 | 0.00 | 0.36 | 0.36 | 61 | |
| 20260507145522 | 14 | 236 | 3.2 | 4.8 | 0.00 | 0.36 | 0.36 | 64 | |
| 20260507145021 | 16 | 314 | 1.6 | 8.0 | 0.00 | 0.36 | 0.36 | 64 | |
| 20260507144517 | 15 | 263 | 6.4 | 9.7 | 0.00 | 0.36 | 0.36 | 65 | |
| 20260507144014 | 15 | 194 | 6.4 | 9.7 | 0.00 | 0.36 | 0.36 | 66 | |
| 20260507143511 | 15 | 207 | 8.0 | 9.7 | 0.00 | 0.36 | 0.36 | 68 | |
| 20260507143009 | 15 | 242 | 3.2 | 4.8 | 0.00 | 0.36 | 0.36 | 71 | |
| 20260507142504 | 15 | 261 | 4.8 | 8.0 | 0.00 | 0.36 | 0.36 | 70 | |
| 20260507142001 | 14 | 272 | 1.6 | 4.8 | 0.00 | 0.36 | 0.36 | 73 | |
| 20260507141457 | 13 | 263 | 6.4 | 8.0 | 0.00 | 0.36 | 0.36 | 74 | |
| 20260507140954 | 13 | 258 | 6.4 | 11.3 | 0.00 | 0.36 | 0.36 | 71 | |
| 20260507140450 | 14 | 247 | 3.2 | 4.8 | 0.00 | 0.36 | 0.36 | 72 | |
| 20260507135948 | 14 | 255 | 4.8 | 12.9 | 0.00 | 0.36 | 0.36 | 73 | |
| 20260507135445 | 13 | 240 | 3.2 | 4.8 | 0.00 | 0.36 | 0.36 | 72 | |
| 20260507134942 | 14 | 271 | 4.8 | 4.8 | 0.00 | 0.36 | 0.36 | 74 | |
| 20260507134438 | 15 | 168 | 3.2 | 4.8 | 0.00 | 0.36 | 0.36 | 72 | |
| 20260507133935 | 13 | 76 | 0.0 | 3.2 | 0.00 | 0.36 | 0.36 | 77 | |
| 20260507133431 | 14 | 250 | 1.6 | 8.0 | 0.00 | 0.36 | 0.36 | 73 | |
| 20260507132930 | 14 | 288 | 1.6 | 4.8 | 0.00 | 0.36 | 0.36 | 73 | |
| 20260507132425 | 13 | 277 | 1.6 | 3.2 | 0.00 | 0.36 | 0.36 | 76 | |
| 20260507131922 | 13 | 197 | 1.6 | 3.2 | 0.00 | 0.36 | 0.36 | 79 | |
| 20260507131419 | 13 | 171 | 0.0 | 3.2 | 0.00 | 0.36 | 0.36 | 78 | |
| 20260507130916 | 13 | 88 | 0.0 | 1.6 | 0.00 | 0.36 | 0.36 | 79 | |
| 20260507130413 | 13 | 71 | 1.6 | 3.2 | 0.00 | 0.36 | 0.36 | 82 | |
| 20260507125912 | 13 | 247 | 1.6 | 4.8 | 0.00 | 0.36 | 0.36 | 83 | |
| 20260507125409 | 12 | 275 | 1.6 | 3.2 | 0.00 | 0.36 | 0.36 | 85 | |
| 20260507124906 | 12 | 277 | 1.6 | 1.6 | 0.00 | 0.36 | 0.36 | 85 | |
| 20260507124402 | 12 | 301 | 4.8 | 8.0 | 0.00 | 0.36 | 0.36 | 85 | |
| 20260507123901 | 12 | 190 | 1.6 | 3.2 | 0.00 | 0.36 | 0.36 | 87 | |
| 20260507123358 | 12 | 96 | 1.6 | 3.2 | 0.00 | 0.36 | 0.36 | 89 | |
| 20260507122854 | 12 | 291 | 3.2 | 4.8 | 0.00 | 0.36 | 0.36 | 90 | |
| 20260507122349 | 12 | 330 | 0.0 | 1.6 | 0.00 | 0.36 | 0.36 | 93 | |
| 20260507121846 | 11 | 336 | 0.0 | 3.2 | 0.00 | 0.36 | 0.36 | 96 | |
| 20260507121341 | 10 | 348 | 0.0 | 8.0 | 0.00 | 0.36 | 0.36 | 99 | |
| 20260507120838 | 10 | 359 | 0.0 | 1.6 | 0.00 | 0.36 | 0.36 | 99 | |
| 20260507120335 | 10 | 316 | 0.0 | 1.6 | 0.00 | 0.36 | 0.36 | 99 | |
| 20260507115831 | 10 | 281 | 1.6 | 1.6 | 0.00 | 0.36 | 0.36 | 99 | |
| 20260507115326 | 10 | 295 | 0.0 | 4.8 | 0.00 | 0.36 | 0.36 | 99 | |
| 20260507114822 | 10 | 284 | 0.0 | 0.0 | 0.00 | 0.36 | 0.36 | 99 | |
| 20260507114320 | 9 | 284 | 0.0 | 0.0 | 0.00 | 0.36 | 0.36 | 99 | |
| 20260507113817 | 9 | 296 | 0.0 | 0.0 | 0.00 | 0.36 | 0.36 | 99 | |
| 20260507113314 | 9 | 292 | 0.0 | 0.0 | 0.00 | 0.36 | 0.36 | 99 | |
| 20260507112812 | 9 | 302 | 1.6 | 1.6 | 0.00 | 0.36 | 0.36 | 99 | |
| 20260507112308 | 9 | 302 | 1.6 | 1.6 | 0.00 | 0.36 | 0.36 | 99 | |
| 20260507111806 | 9 | 294 | 0.0 | 0.0 | 0.00 | 0.36 | 0.36 | 99 | |
| 20260507111303 | 9 | 289 | 0.0 | 0.0 | 0.00 | 0.36 | 0.36 | 99 | |
| 20260507110759 | 8 | 245 | 3.2 | 3.2 | 0.00 | 0.36 | 0.36 | 99 | |
| 20260507110255 | 9 | 253 | 1.6 | 3.2 | 0.00 | 0.36 | 0.36 | 99 | |
| 20260507105752 | 8 | 313 | 0.0 | 0.0 | 0.00 | 0.36 | 0.36 | 99 | |
| 20260507105248 | 9 | 323 | 0.0 | 0.0 | 0.00 | 0.36 | 0.36 | 99 | |
| 20260507104746 | 9 | 315 | 0.0 | 0.0 | 0.00 | 0.36 | 0.36 | 99 | |
| 20260507104242 | 8 | 296 | 0.0 | 1.6 | 0.00 | 0.36 | 0.36 | 99 | |
| 20260507103738 | 8 | 309 | 1.6 | 1.6 | 0.00 | 0.36 | 0.36 | 99 | |
| 20260507103234 | 8 | 285 | 0.0 | 1.6 | 0.00 | 0.36 | 0.36 | 99 | |
| 20260507102731 | 8 | 281 | 0.0 | 3.2 | 0.00 | 0.36 | 0.36 | 99 | |
| 20260507102228 | 8 | 274 | 1.6 | 3.2 | 0.00 | 0.36 | 0.36 | 99 | |
| 20260507101724 | 8 | 298 | 0.0 | 0.0 | 0.00 | 0.36 | 0.36 | 99 | |
| 20260507101219 | 8 | 311 | 0.0 | 0.0 | 0.00 | 0.36 | 0.36 | 99 | |
| 20260507100716 | 8 | 319 | 0.0 | 0.0 | 0.00 | 0.36 | 0.36 | 99 | |
| 20260507100215 | 8 | 319 | 0.0 | 0.0 | 0.00 | 0.36 | 0.36 | 99 | |
| 20260507095713 | 8 | 319 | 0.0 | 0.0 | 0.00 | 0.36 | 0.36 | 99 | |
| 20260507095209 | 8 | 339 | 0.0 | 0.0 | 0.00 | 0.36 | 0.36 | 99 | |
| 20260507094706 | 8 | 40 | 0.0 | 1.6 | 0.18 | 0.36 | 0.36 | 99 | |
| 20260507094203 | 8 | 350 | 0.0 | 0.0 | 0.18 | 0.36 | 0.36 | 99 | |
| 20260507093659 | 8 | 10 | 0.0 | 0.0 | 0.13 | 0.33 | 0.33 | 99 | |
| 20260507093158 | 8 | 334 | 0.0 | 0.0 | 0.30 | 0.33 | 0.33 | 99 | |
| 20260507092655 | 8 | 309 | 0.0 | 1.6 | 0.18 | 0.30 | 0.30 | 99 | |
| 20260507092151 | 8 | 185 | 3.2 | 3.2 | 0.13 | 0.28 | 0.28 | 99 | |
| 20260507091648 | 8 | 332 | 0.0 | 0.0 | 0.18 | 0.25 | 0.25 | 99 | |
| 20260507091144 | 9 | 330 | 0.0 | 1.6 | 0.30 | 0.25 | 0.25 | 99 | |
| 20260507090639 | 9 | 337 | 0.0 | 1.6 | 0.30 | 0.23 | 0.23 | 99 | |
| 20260507090137 | 9 | 344 | 0.0 | 1.6 | 0.36 | 0.20 | 0.20 | 99 | |
| 20260507085634 | 9 | 292 | 0.0 | 1.6 | 0.13 | 0.15 | 0.15 | 98 | |
| 20260507085131 | 9 | 295 | 0.0 | 0.0 | 0.30 | 0.15 | 0.15 | 98 | |
| 20260507084627 | 9 | 302 | 1.6 | 1.6 | 0.13 | 0.10 | 0.10 | 97 | |
| 20260507084124 | 9 | 263 | 1.6 | 4.8 | 0.13 | 0.10 | 0.10 | 97 | |
| 20260507083621 | 9 | 302 | 0.0 | 1.6 | 0.00 | 0.08 | 0.08 | 97 | |
| 20260507083118 | 9 | 334 | 1.6 | 3.2 | 0.00 | 0.08 | 0.08 | 97 | |
| 20260507082614 | 9 | 279 | 1.6 | 3.2 | 0.00 | 0.08 | 0.08 | 96 | |
| 20260507082110 | 9 | 294 | 1.6 | 1.6 | 0.00 | 0.08 | 0.08 | 95 | |
| 20260507081607 | 10 | 280 | 3.2 | 4.8 | 0.18 | 0.08 | 0.08 | 95 | |
| 20260507081103 | 10 | 312 | 1.6 | 1.6 | 0.18 | 0.08 | 0.08 | 94 | |
| 20260507080600 | 10 | 302 | 1.6 | 3.2 | 0.13 | 0.05 | 0.05 | 93 | |
| 20260507080056 | 10 | 316 | 1.6 | 1.6 | 0.13 | 0.05 | 0.05 | 92 | |
| 20260507075551 | 10 | 242 | 3.2 | 3.2 | 0.00 | 0.03 | 0.03 | 92 | |
| 20260507075048 | 10 | 276 | 1.6 | 4.8 | 0.00 | 0.03 | 0.03 | 92 | |
| 20260507074545 | 10 | 291 | 1.6 | 1.6 | 0.00 | 0.03 | 0.03 | 91 | |
| 20260507074043 | 10 | 219 | 1.6 | 11.3 | 0.00 | 0.03 | 0.03 | 90 | |
| 20260507073539 | 11 | 280 | 3.2 | 3.2 | 0.00 | 0.03 | 0.03 | 89 | |
| 20260507073036 | 11 | 294 | 4.8 | 4.8 | 0.18 | 0.03 | 0.03 | 88 | |
| 20260507072533 | 11 | 287 | 1.6 | 8.0 | 0.00 | 0.00 | 0.00 | 86 | |
| 20260507072030 | 11 | 298 | 4.8 | 8.0 | 0.00 | 0.00 | 0.00 | 88 | |
| 20260507071528 | 11 | 277 | 1.6 | 1.6 | 0.00 | 0.00 | 0.00 | 91 | |
| 20260507071024 | 11 | 296 | 0.0 | 3.2 | 0.00 | 0.00 | 0.00 | 91 | |
| 20260507070521 | 11 | 286 | 1.6 | 1.6 | 0.00 | 0.00 | 0.00 | 90 | |
| 20260507070018 | 11 | 13 | 1.6 | 3.2 | 0.00 | 0.00 | 0.00 | 90 | |
| 20260507065514 | 11 | 9 | 0.0 | 1.6 | 0.00 | 0.00 | 0.00 | 90 | |
| 20260507065012 | 11 | 337 | 0.0 | 0.0 | 0.00 | 0.00 | 0.00 | 90 | |
| 20260507064510 | 11 | 228 | 1.6 | 3.2 | 0.00 | 0.00 | 0.00 | 89 | |
| 20260507064008 | 11 | 310 | 0.0 | 3.2 | 0.00 | 0.00 | 0.00 | 88 | |
| 20260507063504 | 11 | 29 | 0.0 | 3.2 | 0.00 | 0.00 | 0.00 | 88 | |
| 20260507063002 | 12 | 233 | 1.6 | 4.8 | 0.00 | 0.00 | 0.00 | 88 | |
| 20260507062458 | 12 | 260 | 3.2 | 9.7 | 0.00 | 0.00 | 0.00 | 87 | |
| 20260507061956 | 12 | 235 | 3.2 | 4.8 | 0.00 | 0.00 | 0.00 | 91 | |
| 20260507061454 | 12 | 263 | 1.6 | 3.2 | 0.00 | 0.00 | 0.00 | 92 | |
| 20260507060952 | 12 | 290 | 1.6 | 8.0 | 0.00 | 0.00 | 0.00 | 92 | |
| 20260507060448 | 12 | 281 | 1.6 | 3.2 | 0.00 | 0.00 | 0.00 | 93 | |
| 20260507055945 | 12 | 271 | 1.6 | 3.2 | 0.00 | 0.00 | 0.00 | 93 | |
| 20260507055440 | 13 | 241 | 1.6 | 3.2 | 0.00 | 0.00 | 0.00 | 94 | |
| 20260507054937 | 13 | 279 | 1.6 | 4.8 | 0.00 | 0.00 | 0.00 | 94 | |
| 20260507054433 | 13 | 269 | 3.2 | 4.8 | 0.00 | 0.00 | 0.00 | 95 | |
| 20260507053931 | 12 | 245 | 3.2 | 3.2 | 0.00 | 0.00 | 0.00 | 96 | |
| 20260507053428 | 13 | 333 | 0.0 | 3.2 | 0.00 | 0.00 | 0.00 | 96 | |
| 20260507052927 | 13 | 244 | 4.8 | 8.0 | 0.00 | 0.00 | 0.00 | 96 | |
| 20260507052424 | 13 | 317 | 0.0 | 1.6 | 0.00 | 0.00 | 0.00 | 96 | |
| 20260507051921 | 13 | 316 | 0.0 | 1.6 | 0.00 | 0.00 | 0.00 | 96 | |
| 20260507051418 | 13 | 36 | 0.0 | 3.2 | 0.00 | 0.00 | 0.00 | 96 | |
| 20260507050915 | 13 | 259 | 0.0 | 1.6 | 0.00 | 0.00 | 0.00 | 96 | |
| 20260507050412 | 13 | 15 | 0.0 | 4.8 | 0.00 | 0.00 | 0.00 | 97 | |
| 20260507045908 | 13 | 290 | 3.2 | 3.2 | 0.00 | 0.00 | 0.00 | 97 | |
| 20260507045405 | 14 | 283 | 0.0 | 1.6 | 0.00 | 0.00 | 0.00 | 97 | |
| 20260507044902 | 14 | 319 | 1.6 | 4.8 | 0.00 | 0.00 | 0.00 | 96 | |
| 20260507044359 | 14 | 216 | 3.2 | 9.7 | 0.00 | 0.00 | 0.00 | 96 | |
| 20260507043855 | 14 | 234 | 1.6 | 4.8 | 0.00 | 0.00 | 0.00 | 96 | |
| 20260507043352 | 14 | 258 | 1.6 | 4.8 | 0.00 | 0.00 | 0.00 | 96 | |
| 20260507042848 | 14 | 259 | 4.8 | 4.8 | 0.00 | 0.00 | 0.00 | 96 | |
| 20260507042344 | 15 | 270 | 4.8 | 4.8 | 0.00 | 0.00 | 0.00 | 96 | |
| 20260507041841 | 15 | 290 | 0.0 | 1.6 | 0.00 | 0.00 | 0.00 | 96 | |
| 20260507041337 | 15 | 286 | 3.2 | 3.2 | 0.00 | 0.00 | 0.00 | 96 | |
| 20260507040835 | 15 | 259 | 6.4 | 8.0 | 0.00 | 0.00 | 0.00 | 96 | |
| 20260507040330 | 15 | 306 | 3.2 | 8.0 | 0.00 | 0.00 | 0.00 | 97 | |
| 20260507035827 | 15 | 251 | 4.8 | 8.0 | 0.00 | 0.28 | 0.28 | 98 | |
| 20260507035322 | 15 | 353 | 6.4 | 11.3 | 0.00 | 0.28 | 0.28 | 99 | |
| 20260507034820 | 15 | 256 | 4.8 | 8.0 | 0.00 | 0.28 | 0.28 | 99 | |
| 20260507034316 | 15 | 283 | 1.6 | 3.2 | 0.00 | 0.28 | 0.28 | 99 | |
| 20260507033815 | 15 | 228 | 3.2 | 8.0 | 0.00 | 0.28 | 0.28 | 99 | |
| 20260507033312 | 15 | 241 | 3.2 | 4.8 | 0.00 | 0.28 | 0.28 | 99 | |
| 20260507032809 | 15 | 263 | 1.6 | 4.8 | 0.00 | 0.28 | 0.28 | 99 | |
| 20260507032306 | 15 | 267 | 1.6 | 3.2 | 0.00 | 0.28 | 0.28 | 99 | |
| 20260507031802 | 15 | 230 | 3.2 | 8.0 | 0.00 | 0.28 | 0.28 | 99 | |
| 20260507031259 | 15 | 271 | 6.4 | 8.0 | 0.00 | 0.28 | 0.28 | 99 | |
| 20260507030755 | 15 | 249 | 3.2 | 4.8 | 0.00 | 0.28 | 0.28 | 99 | |
| 20260507030253 | 15 | 288 | 3.2 | 8.0 | 0.00 | 0.28 | 0.28 | 99 | |
| 20260507025750 | 15 | 257 | 3.2 | 8.0 | 0.00 | 0.28 | 0.28 | 99 | |
| 20260507025247 | 15 | 240 | 1.6 | 9.7 | 0.00 | 0.28 | 0.28 | 99 | |
| 20260507024745 | 15 | 286 | 1.6 | 4.8 | 0.00 | 0.28 | 0.28 | 99 | |
| 20260507024242 | 15 | 290 | 8.0 | 9.7 | 0.00 | 0.28 | 0.28 | 99 | |
| 20260507023737 | 15 | 221 | 1.6 | 8.0 | 0.00 | 0.28 | 0.28 | 99 | |
| 20260507023235 | 15 | 231 | 4.8 | 4.8 | 0.00 | 0.28 | 0.28 | 99 | |
| 20260507022732 | 15 | 231 | 3.2 | 8.0 | 0.00 | 0.28 | 0.28 | 99 | |
| 20260507022228 | 15 | 287 | 3.2 | 8.0 | 0.00 | 0.28 | 0.28 | 99 | |
| 20260507021724 | 15 | 287 | 3.2 | 8.0 | 0.00 | 0.28 | 0.28 | 99 | |
| 20260507021220 | 15 | 254 | 6.4 | 8.0 | 0.00 | 0.28 | 0.28 | 99 | |
| 20260507020719 | 15 | 316 | 4.8 | 8.0 | 0.00 | 0.28 | 0.28 | 99 | |
| 20260507020214 | 14 | 282 | 4.8 | 8.0 | 0.00 | 0.28 | 0.28 | 99 | |
| 20260507015712 | 14 | 268 | 6.4 | 12.9 | 0.00 | 0.28 | 0.28 | 99 | |
| 20260507015209 | 14 | 275 | 4.8 | 9.7 | 0.00 | 0.28 | 0.28 | 99 | |
| 20260507014706 | 14 | 249 | 0.0 | 4.8 | 0.00 | 0.28 | 0.28 | 99 | |
| 20260507014202 | 14 | 216 | 3.2 | 3.2 | 0.00 | 0.28 | 0.28 | 99 | |
| 20260507013659 | 14 | 250 | 1.6 | 8.0 | 0.00 | 0.28 | 0.28 | 99 | |
| 20260507013156 | 14 | 237 | 3.2 | 4.8 | 0.00 | 0.28 | 0.28 | 99 | |
| 20260507012654 | 14 | 233 | 3.2 | 9.7 | 0.00 | 0.28 | 0.28 | 99 | |
| 20260507012149 | 14 | 286 | 4.8 | 8.0 | 0.00 | 0.28 | 0.28 | 99 | |
| 20260507011647 | 14 | 262 | 1.6 | 8.0 | 0.00 | 0.28 | 0.28 | 99 | |
| 20260507011143 | 14 | 209 | 9.7 | 16.1 | 0.00 | 0.28 | 0.28 | 99 | |
| 20260507010638 | 14 | 291 | 9.7 | 11.3 | 0.00 | 0.28 | 0.28 | 99 | |
| 20260507010134 | 14 | 221 | 9.7 | 14.5 | 0.00 | 0.28 | 0.28 | 99 | |
| 20260507005632 | 14 | 294 | 3.2 | 9.7 | 0.00 | 0.28 | 0.28 | 99 | |
| 20260507005127 | 14 | 230 | 3.2 | 4.8 | 0.00 | 0.28 | 0.28 | 99 | |
| 20260507004624 | 14 | 276 | 4.8 | 11.3 | 0.00 | 0.28 | 0.28 | 99 | |
| 20260507004122 | 14 | 324 | 3.2 | 4.8 | 0.00 | 0.28 | 0.28 | 99 | |
| 20260507003618 | 14 | 284 | 4.8 | 14.5 | 0.00 | 0.28 | 0.28 | 99 | |
| 20260507003113 | 14 | 208 | 6.4 | 9.7 | 0.00 | 0.28 | 0.28 | 99 | |
| 20260507002610 | 14 | 222 | 4.8 | 8.0 | 0.00 | 0.28 | 0.28 | 99 | |
| 20260507002105 | 14 | 244 | 4.8 | 8.0 | 0.00 | 0.28 | 0.28 | 99 | |
| 20260507001603 | 14 | 297 | 3.2 | 9.7 | 0.00 | 0.28 | 0.28 | 99 | |
| 20260507001100 | 14 | 288 | 1.6 | 8.0 | 0.00 | 0.28 | 0.28 | 99 | |
| 20260507000556 | 14 | 324 | 3.2 | 3.2 | 0.00 | 0.28 | 0.28 | 99 | |
| 20260507000052 | 14 | 230 | 3.2 | 3.2 | 0.00 | 0.28 | 0.28 | 99 | |
| 20260506235550 | 14 | 349 | 4.8 | 4.8 | 0.00 | 0.28 | 0.28 | 99 | |
| 20260506235044 | 14 | 307 | 3.2 | 3.2 | 0.00 | 0.28 | 0.28 | 99 | |
| 20260506234542 | 14 | 224 | 1.6 | 8.0 | 0.00 | 0.28 | 0.28 | 99 | |
| 20260506234039 | 14 | 344 | 1.6 | 4.8 | 0.00 | 0.28 | 0.28 | 99 | |
| 20260506233536 | 14 | 281 | 1.6 | 3.2 | 0.13 | 0.28 | 0.28 | 99 | |
| 20260506233033 | 14 | 293 | 1.6 | 4.8 | 0.30 | 0.28 | 0.28 | 99 | |
| 20260506232529 | 15 | 216 | 4.8 | 4.8 | 0.00 | 0.23 | 0.23 | 99 | |
| 20260506232025 | 15 | 331 | 0.0 | 3.2 | 0.00 | 0.23 | 0.23 | 99 | |
| 20260506231522 | 15 | 191 | 4.8 | 8.0 | 0.13 | 0.23 | 0.23 | 99 | |
| 20260506231020 | 15 | 235 | 4.8 | 9.7 | 0.13 | 0.23 | 0.23 | 99 | |
| 20260506230516 | 15 | 202 | 1.6 | 3.2 | 0.18 | 0.20 | 0.20 | 99 | |
| 20260506230014 | 15 | 79 | 1.6 | 3.2 | 0.00 | 0.18 | 0.18 | 99 |